createdAt,value
2022-10-14T00:01:24.976Z,13.10
2022-10-14T00:04:04.862Z,12.73
2022-10-14T00:06:44.456Z,13.32
2022-10-14T00:09:26.051Z,12.98
2022-10-14T00:12:05.848Z,12.68
2022-10-14T00:14:45.519Z,13.00
2022-10-14T00:17:24.096Z,13.93
2022-10-14T00:20:04.346Z,13.07
2022-10-14T00:22:45.465Z,14.05
2022-10-14T00:25:26.295Z,13.93
2022-10-14T00:28:03.738Z,13.35
2022-10-14T00:30:43.199Z,13.38
2022-10-14T00:33:21.576Z,13.75
2022-10-14T00:36:04.097Z,13.88
2022-10-14T00:38:45.813Z,13.63
2022-10-14T00:41:25.439Z,14.48
2022-10-14T00:44:15.876Z,13.18
2022-10-14T00:46:55.603Z,14.73
2022-10-14T00:49:42.140Z,13.38
2022-10-14T00:52:24.131Z,13.43
2022-10-14T00:55:18.866Z,14.25
2022-10-14T00:57:58.167Z,14.80
2022-10-14T01:00:39.223Z,14.80
2022-10-14T01:03:23.197Z,15.40
2022-10-14T01:06:16.982Z,15.40
2022-10-14T01:09:07.529Z,14.65
2022-10-14T01:11:46.001Z,15.15
2022-10-14T01:14:43.415Z,16.25
2022-10-14T01:17:51.937Z,16.10
2022-10-14T01:20:31.995Z,15.55
2022-10-14T01:23:32.774Z,17.33
2022-10-14T01:26:47.890Z,15.85
2022-10-14T01:30:03.034Z,15.55
2022-10-14T01:32:59.470Z,15.80
2022-10-14T01:35:58.192Z,15.90
2022-10-14T01:39:14.953Z,15.88
2022-10-14T01:42:08.240Z,15.80
2022-10-14T01:44:54.265Z,16.65
2022-10-14T01:47:35.859Z,15.57
2022-10-14T01:50:21.340Z,16.90
2022-10-14T01:53:07.940Z,15.40
2022-10-14T01:55:49.260Z,16.60
2022-10-14T01:58:34.464Z,15.23
2022-10-14T02:01:14.728Z,15.38
2022-10-14T02:03:55.021Z,16.25
2022-10-14T02:06:40.296Z,15.93
2022-10-14T02:09:30.907Z,15.63
2022-10-14T02:12:10.380Z,16.77
2022-10-14T02:15:01.475Z,16.10
2022-10-14T02:17:48.447Z,16.42
2022-10-14T02:20:32.472Z,16.33
2022-10-14T02:23:26.987Z,17.80
2022-10-14T02:26:08.427Z,16.35
2022-10-14T02:28:49.319Z,16.10
2022-10-14T02:31:29.525Z,18.77
2022-10-14T02:34:12.738Z,17.48
2022-10-14T02:36:53.546Z,17.58
2022-10-14T02:39:38.468Z,17.77
2022-10-14T02:42:17.776Z,16.02
2022-10-14T02:45:00.117Z,17.38
2022-10-14T02:47:37.989Z,17.02
2022-10-14T02:50:19.112Z,16.55
2022-10-14T02:52:59.256Z,16.98
2022-10-14T02:55:38.257Z,15.82
2022-10-14T02:58:18.801Z,17.42
2022-10-14T03:00:58.020Z,17.23
2022-10-14T03:03:38.360Z,18.15
2022-10-14T03:06:17.593Z,17.63
2022-10-14T03:08:58.987Z,18.70
2022-10-14T03:11:38.881Z,18.50
2022-10-14T03:14:21.841Z,19.05
2022-10-14T03:17:01.808Z,19.60
2022-10-14T03:19:45.370Z,20.55
2022-10-14T03:22:27.895Z,21.60
2022-10-14T03:25:08.057Z,20.00
2022-10-14T03:27:54.212Z,18.35
2022-10-14T03:30:43.210Z,20.00
2022-10-14T03:33:29.818Z,19.38
2022-10-14T03:36:26.192Z,19.85
2022-10-14T03:39:10.065Z,20.13
2022-10-14T03:42:01.114Z,20.50
2022-10-14T03:44:47.248Z,18.35
2022-10-14T03:47:30.614Z,20.15
2022-10-14T03:50:10.570Z,19.33
2022-10-14T03:53:02.738Z,19.70
2022-10-14T03:55:47.415Z,20.30
2022-10-14T03:58:27.436Z,21.25
2022-10-14T04:01:14.269Z,21.27
2022-10-14T04:04:12.800Z,20.10
2022-10-14T04:06:52.359Z,19.73
2022-10-14T04:09:38.008Z,19.75
2022-10-14T04:12:17.237Z,27.98
2022-10-14T04:15:14.505Z,36.65
2022-10-14T04:18:13.288Z,25.15
2022-10-14T04:20:55.120Z,94.90
2022-10-14T04:23:38.371Z,22.65
2022-10-14T04:26:25.915Z,23.00
2022-10-14T04:29:08.697Z,40.20
2022-10-14T04:31:56.465Z,23.65
2022-10-14T04:34:36.232Z,20.50
2022-10-14T04:37:17.256Z,19.75
2022-10-14T04:40:20.639Z,20.60
2022-10-14T04:43:00.098Z,21.27
2022-10-14T04:45:46.060Z,21.67
2022-10-14T04:48:35.588Z,22.65
2022-10-14T04:51:17.011Z,26.63
2022-10-14T04:54:19.131Z,24.35
2022-10-14T04:57:07.142Z,26.35
2022-10-14T04:59:47.080Z,27.23
2022-10-14T05:02:56.539Z,23.77
2022-10-14T05:05:42.022Z,21.95
2022-10-14T05:08:21.922Z,21.13
2022-10-14T05:11:08.246Z,25.73
2022-10-14T05:14:06.361Z,30.90
2022-10-14T05:16:46.538Z,27.67
2022-10-14T05:19:26.415Z,31.40
2022-10-14T05:22:06.260Z,27.58
2022-10-14T05:24:51.613Z,22.13
2022-10-14T05:27:34.102Z,25.40
2022-10-14T05:30:16.900Z,24.17
2022-10-14T05:33:01.679Z,26.38
2022-10-14T05:35:57.995Z,66.47
2022-10-14T05:38:39.674Z,37.30
2022-10-14T05:41:20.042Z,53.83
2022-10-14T05:43:58.434Z,36.33
2022-10-14T05:46:38.655Z,36.35
2022-10-14T05:49:20.937Z,30.67
2022-10-14T05:52:00.660Z,25.70
2022-10-14T05:54:42.324Z,25.05
2022-10-14T05:57:25.715Z,34.53
2022-10-14T06:00:07.123Z,41.28
2022-10-14T06:02:59.970Z,33.45
2022-10-14T06:05:38.463Z,34.58
2022-10-14T06:08:17.760Z,34.83
2022-10-14T06:10:57.672Z,31.55
2022-10-14T06:13:37.709Z,30.42
2022-10-14T06:16:19.657Z,41.45
2022-10-14T06:18:58.667Z,40.15
2022-10-14T06:21:38.727Z,32.33
2022-10-14T06:24:18.395Z,27.70
2022-10-14T06:26:58.393Z,28.35
2022-10-14T06:29:38.580Z,29.38
2022-10-14T06:32:17.823Z,29.20
2022-10-14T06:34:58.321Z,29.77
2022-10-14T06:37:37.706Z,30.58
2022-10-14T06:40:29.197Z,28.50
2022-10-14T06:43:09.020Z,29.65
2022-10-14T06:45:58.465Z,29.52
2022-10-14T06:48:39.765Z,29.25
2022-10-14T06:51:20.918Z,32.67
2022-10-14T06:54:00.097Z,31.75
2022-10-14T06:56:39.474Z,31.88
2022-10-14T06:59:46.167Z,30.58
2022-10-14T07:02:26.077Z,32.15
2022-10-14T07:05:04.952Z,30.95
2022-10-14T07:07:47.027Z,31.67
2022-10-14T07:10:28.656Z,32.03
2022-10-14T07:13:07.978Z,33.00
2022-10-14T07:15:52.391Z,32.63
2022-10-14T07:18:32.410Z,32.97
2022-10-14T07:21:12.139Z,32.30
2022-10-14T07:23:51.840Z,34.75
2022-10-14T07:26:32.739Z,31.35
2022-10-14T07:29:12.195Z,31.15
2022-10-14T07:31:51.702Z,31.58
2022-10-14T07:34:29.781Z,31.45
2022-10-14T07:37:09.496Z,29.63
2022-10-14T07:39:49.648Z,31.00
2022-10-14T07:42:29.414Z,31.20
2022-10-14T07:45:09.947Z,29.80
2022-10-14T07:47:50.631Z,30.00
2022-10-14T07:50:30.809Z,30.63
2022-10-14T07:53:10.303Z,35.40
2022-10-14T07:55:52.618Z,32.05
2022-10-14T07:58:32.365Z,30.83
2022-10-14T08:01:11.495Z,29.25
2022-10-14T08:03:52.105Z,29.58
2022-10-14T08:06:30.963Z,28.95
2022-10-14T08:09:14.024Z,29.42
2022-10-14T08:11:53.752Z,29.90
2022-10-14T08:14:33.518Z,29.27
2022-10-14T08:17:13.368Z,29.65
2022-10-14T08:19:53.904Z,29.38
2022-10-14T08:22:33.846Z,28.58
2022-10-14T08:25:12.839Z,29.33
2022-10-14T08:27:51.815Z,29.67
2022-10-14T08:30:32.444Z,27.92
2022-10-14T08:33:13.231Z,30.27
2022-10-14T08:35:54.108Z,29.63
2022-10-14T08:38:33.639Z,28.45
2022-10-14T08:41:13.723Z,28.13
2022-10-14T08:44:26.076Z,27.55
2022-10-14T08:47:05.260Z,29.15
2022-10-14T08:49:59.033Z,29.25
2022-10-14T08:52:45.660Z,28.30
2022-10-14T08:55:39.697Z,27.73
2022-10-14T08:58:43.604Z,28.77
2022-10-14T09:01:27.987Z,27.85
2022-10-14T09:04:15.840Z,27.80
2022-10-14T09:06:56.042Z,29.90
2022-10-14T09:09:43.577Z,30.13
2022-10-14T09:12:27.296Z,29.45
2022-10-14T09:15:10.418Z,29.67
2022-10-14T09:18:08.528Z,29.67
2022-10-14T09:20:48.743Z,29.75
2022-10-14T09:23:28.526Z,28.58
2022-10-14T09:26:17.530Z,31.13
2022-10-14T09:28:57.311Z,26.73
2022-10-14T09:31:36.975Z,28.13
2022-10-14T09:34:25.871Z,29.20
2022-10-14T09:37:33.654Z,28.20
2022-10-14T09:40:13.659Z,27.75
2022-10-14T09:43:01.244Z,27.77
2022-10-14T09:46:02.527Z,27.98
2022-10-14T09:48:50.537Z,27.90
2022-10-14T09:51:32.147Z,29.30
2022-10-14T09:54:28.552Z,30.00
2022-10-14T09:57:17.701Z,29.88
2022-10-14T10:00:02.070Z,30.00
2022-10-14T10:02:48.472Z,29.15
2022-10-14T10:05:34.214Z,31.85
2022-10-14T10:08:14.835Z,29.77
2022-10-14T10:11:11.329Z,29.80
2022-10-14T10:13:52.630Z,32.70
2022-10-14T10:16:34.959Z,32.83
2022-10-14T10:19:48.048Z,28.05
2022-10-14T10:22:34.174Z,35.72
2022-10-14T10:25:13.050Z,29.52
2022-10-14T10:27:52.978Z,30.13
2022-10-14T10:31:04.608Z,28.83
2022-10-14T10:33:44.076Z,29.52
2022-10-14T10:36:50.941Z,30.63
2022-10-14T10:39:40.157Z,28.85
2022-10-14T10:42:41.248Z,29.65
2022-10-14T10:45:35.537Z,30.00
2022-10-14T10:48:46.777Z,27.88
2022-10-14T10:51:38.431Z,27.30
2022-10-14T10:54:39.550Z,28.92
2022-10-14T10:57:32.208Z,27.42
2022-10-14T11:00:17.255Z,28.67
2022-10-14T11:03:29.851Z,26.73
2022-10-14T11:06:37.055Z,27.00
2022-10-14T11:10:02.551Z,27.90
2022-10-14T11:13:03.984Z,28.70
2022-10-14T11:15:57.765Z,28.98
2022-10-14T11:18:45.649Z,29.58
2022-10-14T11:21:38.446Z,28.05
2022-10-14T11:24:20.372Z,27.98
2022-10-14T11:27:12.088Z,25.20
2022-10-14T11:29:50.299Z,24.90
2022-10-14T11:32:30.814Z,25.77
2022-10-14T11:41:22.575Z,28.58
2022-10-14T11:43:59.857Z,27.48
2022-10-14T11:46:35.743Z,27.63
2022-10-14T11:49:13.695Z,27.38
2022-10-14T11:51:50.118Z,25.45
2022-10-14T11:54:38.924Z,38.85
2022-10-14T11:57:32.858Z,42.58
2022-10-14T12:00:24.014Z,29.33
2022-10-14T12:02:59.695Z,58.05
2022-10-14T12:05:54.699Z,29.27
2022-10-14T12:08:51.536Z,30.10
2022-10-14T12:11:38.225Z,26.80
2022-10-14T12:14:31.231Z,28.77
2022-10-14T12:17:03.999Z,29.77
2022-10-14T12:19:33.196Z,25.85
2022-10-14T12:22:04.512Z,27.10
2022-10-14T12:24:38.422Z,27.30
2022-10-14T12:27:10.676Z,26.38
2022-10-14T12:29:44.111Z,26.98
2022-10-14T12:32:21.210Z,25.08
2022-10-14T12:34:56.342Z,26.58
2022-10-14T12:37:35.672Z,27.23
2022-10-14T12:40:06.984Z,27.88
2022-10-14T12:42:45.247Z,27.40
2022-10-14T12:45:20.380Z,27.25
2022-10-14T12:48:01.991Z,26.08
2022-10-14T12:50:35.802Z,26.58
2022-10-14T12:58:15.274Z,26.90
2022-10-14T13:01:53.426Z,27.80
2022-10-14T13:05:34.913Z,25.33
2022-10-14T13:08:20.083Z,25.27
2022-10-14T13:11:04.811Z,25.38
2022-10-14T13:13:49.342Z,25.25
2022-10-14T13:16:26.975Z,26.08
2022-10-14T13:19:01.716Z,24.45
2022-10-14T13:21:34.646Z,24.42
2022-10-14T13:24:06.383Z,26.38
2022-10-14T13:26:53.837Z,24.92
2022-10-14T13:30:03.334Z,27.13
2022-10-14T13:40:04.732Z,29.42
2022-10-14T13:43:34.646Z,24.83
2022-10-14T13:46:57.232Z,24.13
2022-10-14T13:50:22.198Z,25.67
2022-10-14T13:53:43.963Z,23.25
2022-10-14T13:56:47.704Z,24.40
2022-10-14T14:03:59.082Z,25.83
2022-10-14T14:07:18.718Z,29.08
2022-10-14T14:14:06.988Z,25.00
2022-10-14T14:16:42.852Z,27.23
2022-10-14T14:19:36.876Z,27.33
2022-10-14T14:22:28.812Z,27.00
2022-10-14T14:25:43.051Z,22.95
2022-10-14T14:28:17.833Z,23.65
2022-10-14T14:30:54.996Z,23.42
2022-10-14T14:33:34.018Z,35.40
2022-10-14T14:36:05.719Z,29.23
2022-10-14T14:38:37.246Z,28.63
2022-10-14T14:41:22.593Z,29.48
2022-10-14T14:44:24.113Z,36.05
2022-10-14T14:46:46.969Z,29.42
2022-10-14T14:49:24.630Z,31.55
2022-10-14T14:51:54.367Z,30.17
2022-10-14T14:54:24.408Z,28.95
2022-10-14T14:57:06.268Z,25.58
2022-10-14T14:59:42.280Z,21.88
2022-10-14T15:02:21.362Z,22.95
2022-10-14T15:05:05.676Z,22.55
2022-10-14T15:07:35.838Z,22.42
2022-10-14T15:10:07.670Z,24.17
2022-10-14T15:12:42.039Z,22.80
2022-10-14T15:15:33.607Z,23.33
2022-10-14T15:18:24.628Z,30.38
2022-10-14T15:21:04.067Z,72.63
2022-10-14T15:23:50.677Z,67.35
2022-10-14T15:26:36.125Z,89.78
2022-10-14T15:32:15.798Z,67.13
2022-10-14T15:34:44.326Z,45.50
2022-10-14T15:37:14.140Z,45.03
2022-10-14T15:39:42.378Z,48.72
2022-10-14T15:42:13.038Z,46.72
2022-10-14T15:44:41.096Z,45.90
2022-10-14T15:47:21.297Z,44.85
2022-10-14T15:49:50.901Z,43.00
2022-10-14T15:52:23.016Z,46.95
2022-10-14T15:56:06.999Z,110.70
2022-10-14T16:00:09.899Z,62.03
2022-10-14T16:03:51.806Z,65.57
2022-10-14T16:08:07.226Z,61.97
2022-10-14T16:11:14.354Z,66.30
2022-10-14T16:14:59.420Z,72.07
2022-10-14T16:18:46.178Z,63.97
2022-10-14T16:22:03.797Z,62.28
2022-10-14T16:25:44.091Z,56.85
2022-10-14T16:29:30.111Z,53.15
2022-10-14T16:33:20.671Z,52.20
2022-10-14T16:36:41.259Z,40.72
2022-10-14T16:40:02.167Z,53.83
2022-10-14T16:44:15.030Z,80.65
2022-10-14T16:48:11.586Z,83.93
2022-10-14T16:55:55.993Z,129.00
2022-10-14T17:02:44.310Z,90.70
2022-10-14T17:12:24.680Z,81.53
2022-10-14T17:20:05.153Z,81.63
2022-10-14T17:23:48.541Z,75.72
2022-10-14T17:27:53.243Z,90.65
2022-10-14T17:33:56.181Z,87.32
2022-10-14T17:36:30.926Z,90.70
2022-10-14T17:39:00.473Z,95.72
2022-10-14T17:41:30.268Z,91.47
2022-10-14T17:44:01.422Z,81.78
2022-10-14T17:46:31.712Z,80.90
2022-10-14T17:49:04.054Z,73.22
2022-10-14T17:51:33.355Z,76.75
2022-10-14T17:54:04.012Z,85.35
2022-10-14T17:56:34.129Z,63.03
2022-10-14T17:59:08.684Z,60.00
2022-10-14T18:02:01.046Z,62.08
2022-10-14T18:04:26.178Z,84.93
2022-10-14T18:06:54.701Z,106.85
2022-10-14T18:09:22.985Z,239.15
2022-10-14T18:12:10.634Z,160.20
2022-10-14T18:14:42.498Z,194.48
2022-10-14T18:17:12.541Z,128.98
2022-10-14T18:19:42.241Z,163.70
2022-10-14T18:22:11.501Z,102.40
2022-10-14T18:24:40.628Z,119.32
2022-10-14T18:27:09.838Z,121.20
2022-10-14T18:29:39.425Z,110.22
2022-10-14T18:32:07.862Z,101.70
2022-10-14T18:34:36.560Z,94.57
2022-10-14T18:37:05.146Z,103.13
2022-10-14T18:39:33.801Z,95.63
2022-10-14T18:42:02.419Z,97.65
2022-10-14T18:44:32.349Z,111.45
2022-10-14T18:47:00.981Z,95.93
2022-10-14T18:49:29.968Z,96.65
2022-10-14T18:51:59.656Z,92.43
2022-10-14T18:54:30.299Z,85.82
2022-10-14T18:56:59.912Z,79.70
2022-10-14T18:59:29.542Z,81.10
2022-10-14T19:01:58.451Z,85.18
2022-10-14T19:04:27.585Z,76.90
2022-10-14T19:06:56.588Z,87.70
2022-10-14T19:09:29.757Z,85.50
2022-10-14T19:11:59.649Z,88.25
2022-10-14T19:14:29.512Z,84.72
2022-10-14T19:16:58.295Z,79.80
2022-10-14T19:19:26.917Z,103.72
2022-10-14T19:21:59.754Z,114.88
2022-10-14T19:24:28.549Z,119.00
2022-10-14T19:26:58.523Z,126.20
2022-10-14T19:29:28.043Z,251.05
2022-10-14T19:31:57.439Z,248.35
2022-10-14T19:34:28.064Z,179.75
2022-10-14T19:37:00.666Z,145.15
2022-10-14T19:39:31.199Z,143.63
2022-10-14T19:42:00.363Z,129.00
2022-10-14T19:44:29.591Z,122.63
2022-10-14T19:47:04.847Z,111.93
2022-10-14T19:49:34.437Z,102.68
2022-10-14T19:52:03.821Z,88.85
2022-10-14T19:54:34.097Z,85.35
2022-10-14T19:57:03.052Z,75.05
2022-10-14T19:59:32.506Z,79.93
2022-10-14T20:02:01.316Z,76.57
2022-10-14T20:04:30.222Z,75.57
2022-10-14T20:07:00.307Z,71.40
2022-10-14T20:09:33.344Z,69.03
2022-10-14T20:12:05.349Z,67.85
2022-10-14T20:14:36.143Z,62.85
2022-10-14T20:17:06.306Z,62.35
2022-10-14T20:19:38.345Z,61.08
2022-10-14T20:22:10.797Z,58.25
2022-10-14T20:24:41.183Z,62.80
2022-10-14T20:27:12.035Z,70.28
2022-10-14T20:29:41.594Z,69.05
2022-10-14T20:32:11.205Z,72.45
2022-10-14T20:34:39.912Z,73.70
2022-10-14T20:37:08.603Z,75.65
2022-10-14T20:39:37.168Z,74.80
2022-10-14T20:42:07.371Z,72.30
2022-10-14T20:44:39.087Z,74.57
2022-10-14T20:47:08.591Z,72.05
2022-10-14T20:49:37.531Z,67.78
2022-10-14T20:52:06.084Z,66.40
2022-10-14T20:54:34.984Z,66.47
2022-10-14T20:57:03.933Z,64.90
2022-10-14T20:59:32.660Z,60.42
2022-10-14T21:02:01.215Z,59.42
2022-10-14T21:04:29.438Z,59.70
2022-10-14T21:06:57.921Z,58.92
2022-10-14T21:09:27.192Z,57.90
2022-10-14T21:11:55.283Z,55.75
2022-10-14T21:14:23.691Z,51.55
2022-10-14T21:16:53.818Z,55.05
2022-10-14T21:19:22.171Z,54.55
2022-10-14T21:21:50.359Z,53.92
2022-10-14T21:24:20.369Z,55.53
2022-10-14T21:26:52.271Z,54.03
2022-10-14T21:29:21.761Z,51.42
2022-10-14T21:31:50.549Z,50.20
2022-10-14T21:34:18.764Z,47.70
2022-10-14T21:36:47.005Z,47.97
2022-10-14T21:39:18.076Z,48.05
2022-10-14T21:41:47.360Z,45.95
2022-10-14T21:44:19.857Z,43.80
2022-10-14T21:46:49.071Z,46.13
2022-10-14T21:49:17.924Z,46.83
2022-10-14T21:51:46.025Z,49.47
2022-10-14T21:54:14.372Z,48.50
2022-10-14T21:56:42.693Z,47.72
2022-10-14T21:59:11.866Z,49.72
2022-10-14T22:01:40.150Z,51.50
2022-10-14T22:04:09.346Z,49.63
2022-10-14T22:06:37.596Z,50.42
2022-10-14T22:09:07.602Z,50.38
2022-10-14T22:11:38.861Z,50.53
2022-10-14T22:14:10.621Z,50.65
2022-10-14T22:16:39.174Z,49.88
2022-10-14T22:19:07.614Z,52.38
2022-10-14T22:21:37.941Z,57.00
2022-10-14T22:26:37.697Z,58.38
2022-10-14T22:29:07.459Z,56.47
2022-10-14T22:34:14.505Z,57.35
2022-10-14T22:36:46.159Z,57.22
2022-10-14T22:39:19.363Z,57.63
2022-10-14T22:41:47.966Z,53.60
2022-10-14T22:44:19.258Z,52.70
2022-10-14T22:46:47.287Z,54.25
2022-10-14T22:49:15.939Z,52.30
2022-10-14T22:51:43.818Z,51.88
2022-10-14T22:54:11.993Z,50.97
2022-10-14T22:56:40.705Z,50.28
2022-10-14T22:59:11.238Z,47.80
2022-10-14T23:01:41.275Z,45.35
2022-10-14T23:04:10.896Z,42.20
2022-10-14T23:06:40.294Z,45.83
2022-10-14T23:09:08.156Z,46.13
2022-10-14T23:11:36.340Z,44.65
2022-10-14T23:14:06.345Z,46.25
2022-10-14T23:16:36.193Z,44.70
2022-10-14T23:19:04.260Z,45.42
2022-10-14T23:21:34.392Z,46.92
2022-10-14T23:24:05.287Z,50.00
2022-10-14T23:26:35.213Z,46.58
2022-10-14T23:29:09.993Z,45.53
2022-10-14T23:31:39.803Z,39.13
2022-10-14T23:34:13.166Z,40.28
2022-10-14T23:36:41.841Z,41.67
2022-10-14T23:39:10.042Z,38.90
2022-10-14T23:41:38.021Z,39.97
2022-10-14T23:44:06.259Z,39.15
2022-10-14T23:46:34.142Z,39.25
2022-10-14T23:49:08.042Z,39.10
2022-10-14T23:51:49.607Z,38.65
2022-10-14T23:54:17.677Z,40.03
2022-10-14T23:56:45.744Z,39.60
2022-10-14T23:59:14.209Z,39.85
